createdAt,value
2018-06-15T00:00:28.859Z,84.48
2018-06-15T00:02:34.807Z,83.11
2018-06-15T00:04:40.148Z,83.14
2018-06-15T00:06:45.061Z,83.63
2018-06-15T00:08:50.021Z,83.32
2018-06-15T00:10:55.217Z,82.53
2018-06-15T00:13:00.231Z,83.35
2018-06-15T00:15:05.413Z,84.34
2018-06-15T00:17:10.465Z,83.20
2018-06-15T00:19:15.663Z,82.99
2018-06-15T00:21:20.616Z,84.29
2018-06-15T00:23:25.750Z,83.13
2018-06-15T00:25:30.766Z,83.35
2018-06-15T00:27:36.069Z,84.71
2018-06-15T00:29:41.045Z,85.46
2018-06-15T00:31:46.196Z,85.07
2018-06-15T00:33:51.113Z,85.31
2018-06-15T00:35:56.127Z,85.56
2018-06-15T00:38:01.175Z,85.66
2018-06-15T00:40:06.169Z,86.73
2018-06-15T00:42:11.204Z,85.37
2018-06-15T00:44:16.348Z,85.81
2018-06-15T00:46:21.279Z,86.57
2018-06-15T00:48:26.426Z,87.63
2018-06-15T00:50:31.149Z,86.70
2018-06-15T00:52:36.219Z,86.97
2018-06-15T00:54:41.097Z,87.28
2018-06-15T00:57:55.127Z,87.43
2018-06-15T00:59:59.883Z,87.57
2018-06-15T01:02:05.002Z,88.30
2018-06-15T01:04:09.737Z,88.58
2018-06-15T01:06:14.985Z,88.08
2018-06-15T01:08:19.981Z,86.68
2018-06-15T01:10:24.866Z,88.10
2018-06-15T01:12:29.872Z,86.66
2018-06-15T01:14:34.984Z,87.25
2018-06-15T01:16:41.940Z,87.58
2018-06-15T01:18:46.888Z,87.27
2018-06-15T01:20:51.831Z,87.80
2018-06-15T01:22:56.752Z,88.44
2018-06-15T01:25:01.760Z,88.45
2018-06-15T01:27:06.956Z,88.33
2018-06-15T01:29:11.682Z,88.54
2018-06-15T01:31:16.782Z,88.76
2018-06-15T01:33:21.627Z,88.58
2018-06-15T01:35:26.445Z,88.81
2018-06-15T01:37:31.234Z,89.42
2018-06-15T01:39:35.994Z,88.49
2018-06-15T01:41:40.693Z,88.34
2018-06-15T01:43:45.446Z,89.09
2018-06-15T01:45:50.416Z,88.68
2018-06-15T01:47:55.209Z,88.91
2018-06-15T01:49:59.973Z,89.33
2018-06-15T01:52:04.756Z,89.12
2018-06-15T01:54:09.792Z,89.25
2018-06-15T01:56:14.688Z,88.92
2018-06-15T01:58:19.427Z,89.02
2018-06-15T02:00:24.109Z,88.93
2018-06-15T02:02:28.807Z,88.84
2018-06-15T02:04:33.596Z,88.90
2018-06-15T02:06:38.224Z,88.83
2018-06-15T02:08:42.949Z,88.69
2018-06-15T02:10:47.647Z,88.46
2018-06-15T02:12:52.396Z,88.78
2018-06-15T02:14:57.228Z,88.21
2018-06-15T02:17:01.902Z,88.42
2018-06-15T02:19:06.576Z,88.54
2018-06-15T02:21:11.340Z,88.16
2018-06-15T02:23:16.133Z,87.84
2018-06-15T02:25:21.007Z,88.28
2018-06-15T02:27:25.831Z,88.62
2018-06-15T02:29:30.824Z,88.43
2018-06-15T02:31:35.679Z,87.60
2018-06-15T02:33:40.652Z,87.99
2018-06-15T02:35:45.515Z,88.02
2018-06-15T02:37:50.330Z,87.47
2018-06-15T02:39:55.208Z,87.51
2018-06-15T02:42:00.322Z,87.48
2018-06-15T02:44:05.326Z,87.17
2018-06-15T02:46:10.357Z,85.95
2018-06-15T02:48:15.236Z,85.92
2018-06-15T02:50:20.136Z,84.52
2018-06-15T02:52:24.993Z,84.65
2018-06-15T02:54:29.616Z,85.01
2018-06-15T02:56:34.333Z,85.49
2018-06-15T02:58:39.181Z,86.74
2018-06-15T03:00:44.032Z,86.40
2018-06-15T03:02:48.743Z,85.85
2018-06-15T03:04:53.561Z,85.92
2018-06-15T03:06:58.358Z,85.99
2018-06-15T03:09:03.262Z,86.06
2018-06-15T03:11:08.136Z,86.44
2018-06-15T03:13:12.980Z,86.65
2018-06-15T03:15:17.770Z,86.20
2018-06-15T03:17:22.735Z,86.64
2018-06-15T03:19:27.579Z,86.56
2018-06-15T03:21:32.245Z,86.84
2018-06-15T03:23:37.150Z,86.96
2018-06-15T03:25:42.018Z,86.00
2018-06-15T03:27:47.136Z,85.23
2018-06-15T03:29:52.010Z,86.73
2018-06-15T03:31:56.720Z,86.36
2018-06-15T03:34:01.433Z,86.73
2018-06-15T03:36:06.348Z,87.34
2018-06-15T03:38:11.144Z,87.95
2018-06-15T03:40:16.019Z,88.21
2018-06-15T03:42:20.829Z,87.82
2018-06-15T03:44:25.627Z,87.70
2018-06-15T03:46:30.607Z,87.79
2018-06-15T03:48:35.586Z,87.98
2018-06-15T03:50:40.274Z,87.78
2018-06-15T03:52:45.040Z,87.56
2018-06-15T03:54:49.693Z,87.51
2018-06-15T03:56:54.574Z,86.89
2018-06-15T03:58:59.326Z,86.81
2018-06-15T04:01:04.232Z,86.92
2018-06-15T04:03:08.906Z,86.82
2018-06-15T04:05:13.603Z,85.15
2018-06-15T04:07:18.425Z,84.64
2018-06-15T04:09:23.047Z,85.82
2018-06-15T04:11:27.714Z,86.75
2018-06-15T04:13:32.425Z,86.00
2018-06-15T04:15:37.114Z,85.99
2018-06-15T04:17:42.046Z,86.16
2018-06-15T04:19:46.809Z,86.70
2018-06-15T04:21:51.615Z,87.26
2018-06-15T04:23:56.531Z,87.17
2018-06-15T04:26:01.457Z,86.43
2018-06-15T04:28:06.554Z,86.57
2018-06-15T04:30:11.467Z,86.87
2018-06-15T04:32:16.489Z,85.84
2018-06-15T04:34:21.390Z,86.82
2018-06-15T04:36:26.370Z,85.96
2018-06-15T04:38:31.433Z,86.59
2018-06-15T04:40:36.485Z,86.09
2018-06-15T04:42:41.571Z,87.00
2018-06-15T04:44:46.722Z,86.27
2018-06-15T04:46:51.838Z,85.54
2018-06-15T04:48:56.922Z,85.34
2018-06-15T04:51:02.270Z,84.20
2018-06-15T04:53:07.323Z,83.63
2018-06-15T04:55:12.528Z,84.43
2018-06-15T04:57:17.643Z,82.71
2018-06-15T04:59:22.594Z,83.76
2018-06-15T05:01:27.516Z,84.43
2018-06-15T05:03:32.961Z,83.99
2018-06-15T05:05:38.058Z,83.32
2018-06-15T05:07:43.048Z,82.27
2018-06-15T05:09:48.006Z,82.88
2018-06-15T05:11:53.010Z,83.47
2018-06-15T05:13:58.245Z,85.23
2018-06-15T05:16:03.028Z,83.29
2018-06-15T05:18:08.033Z,83.83
2018-06-15T05:20:13.009Z,84.50
2018-06-15T05:22:18.169Z,82.02
2018-06-15T05:24:23.138Z,83.59
2018-06-15T05:26:28.359Z,83.61
2018-06-15T05:28:33.485Z,83.38
2018-06-15T05:30:38.372Z,83.79
2018-06-15T05:32:43.410Z,84.00
2018-06-15T05:34:48.443Z,83.66
2018-06-15T05:36:53.480Z,83.61
2018-06-15T05:38:58.632Z,83.01
2018-06-15T05:41:03.664Z,82.59
2018-06-15T05:43:08.665Z,82.92
2018-06-15T05:45:13.637Z,82.90
2018-06-15T05:47:18.836Z,82.93
2018-06-15T05:49:23.724Z,83.08
2018-06-15T05:51:28.680Z,82.64
2018-06-15T05:53:34.345Z,82.94
2018-06-15T05:55:39.386Z,82.73
2018-06-15T05:57:44.453Z,82.60
2018-06-15T05:59:51.759Z,81.07
2018-06-15T06:01:58.455Z,79.89
2018-06-15T06:04:06.957Z,79.84
2018-06-15T06:06:11.909Z,80.20
2018-06-15T06:08:19.004Z,79.89
2018-06-15T06:10:24.210Z,80.15
2018-06-15T06:12:29.303Z,79.21
2018-06-15T06:14:34.231Z,78.47
2018-06-15T06:16:39.246Z,78.60
2018-06-15T06:18:43.999Z,78.52
2018-06-15T06:20:49.023Z,78.49
2018-06-15T06:22:53.845Z,78.68
2018-06-15T06:24:58.964Z,78.80
2018-06-15T06:27:03.916Z,78.89
2018-06-15T06:29:08.774Z,79.24
2018-06-15T06:31:13.706Z,78.33
2018-06-15T06:33:18.627Z,79.66
2018-06-15T06:35:23.618Z,79.76
2018-06-15T06:37:28.611Z,79.28
2018-06-15T06:39:33.531Z,79.70
2018-06-15T06:41:38.490Z,79.52
2018-06-15T06:43:43.338Z,79.26
2018-06-15T06:45:48.296Z,79.36
2018-06-15T06:47:53.192Z,79.65
2018-06-15T06:49:58.151Z,78.63
2018-06-15T06:52:02.956Z,78.64
2018-06-15T06:54:07.706Z,76.95
2018-06-15T06:56:12.679Z,77.73
2018-06-15T06:58:17.464Z,78.12
2018-06-15T07:00:22.307Z,78.51
2018-06-15T07:02:27.317Z,77.27
2018-06-15T07:04:32.192Z,77.76
2018-06-15T07:06:37.238Z,77.28
2018-06-15T07:08:42.377Z,76.75
2018-06-15T07:10:47.335Z,77.33
2018-06-15T07:12:52.194Z,76.89
2018-06-15T07:14:58.287Z,76.58
2018-06-15T07:17:03.213Z,76.42
2018-06-15T07:19:08.161Z,75.14
2018-06-15T07:21:13.265Z,75.33
2018-06-15T07:23:18.338Z,75.24
2018-06-15T07:25:23.035Z,74.07
2018-06-15T07:27:27.978Z,74.16
2018-06-15T07:29:32.753Z,73.04
2018-06-15T07:31:37.699Z,72.87
2018-06-15T07:33:42.808Z,71.81
2018-06-15T07:35:48.007Z,71.06
2018-06-15T07:37:53.048Z,69.98
2018-06-15T07:39:57.952Z,70.35
2018-06-15T07:42:03.053Z,69.15
2018-06-15T07:44:08.294Z,67.59
2018-06-15T07:46:13.180Z,67.70
2018-06-15T07:48:31.347Z,68.05
2018-06-15T07:50:36.333Z,67.83
2018-06-15T07:52:41.145Z,67.59
2018-06-15T07:54:49.012Z,66.55
2018-06-15T07:56:57.085Z,66.72
2018-06-15T07:59:01.962Z,65.93
2018-06-15T08:01:06.978Z,65.97
2018-06-15T08:03:11.977Z,65.96
2018-06-15T08:05:17.278Z,65.59
2018-06-15T08:07:22.417Z,65.16
2018-06-15T08:09:27.818Z,64.06
2018-06-15T08:11:33.051Z,63.88
2018-06-15T08:13:38.139Z,64.59
2018-06-15T08:15:43.444Z,64.77
2018-06-15T08:17:48.525Z,64.99
2018-06-15T08:19:53.557Z,65.63
2018-06-15T08:21:58.563Z,65.37
2018-06-15T08:24:03.539Z,64.14
2018-06-15T08:26:08.569Z,64.69
2018-06-15T08:28:13.560Z,65.62
2018-06-15T08:30:18.599Z,65.36
2018-06-15T08:32:23.534Z,66.03
2018-06-15T08:34:28.449Z,66.93
2018-06-15T08:36:33.393Z,65.65
2018-06-15T08:38:38.520Z,65.72
2018-06-15T08:40:43.670Z,65.70
2018-06-15T08:42:49.255Z,65.94
2018-06-15T08:44:54.181Z,65.78
2018-06-15T08:46:59.102Z,66.39
2018-06-15T08:49:04.300Z,65.82
2018-06-15T08:51:09.248Z,65.15
2018-06-15T08:53:14.279Z,65.26
2018-06-15T08:55:19.357Z,64.11
2018-06-15T08:57:24.416Z,64.03
2018-06-15T08:59:29.387Z,63.34
2018-06-15T09:01:34.686Z,62.95
2018-06-15T09:03:39.659Z,63.05
2018-06-15T09:05:45.069Z,62.12
2018-06-15T09:07:49.963Z,61.23
2018-06-15T09:09:54.768Z,60.92
2018-06-15T09:11:59.708Z,60.29
2018-06-15T09:14:04.738Z,61.01
2018-06-15T09:16:09.654Z,61.22
2018-06-15T09:18:14.945Z,60.62
2018-06-15T09:20:20.195Z,59.83
2018-06-15T09:22:25.585Z,60.04
2018-06-15T09:24:30.976Z,60.21
2018-06-15T09:26:36.032Z,60.17
2018-06-15T09:28:41.167Z,60.69
2018-06-15T09:30:46.185Z,61.12
2018-06-15T09:32:51.162Z,60.06
2018-06-15T09:34:55.896Z,59.73
2018-06-15T09:37:00.729Z,59.01
2018-06-15T09:39:08.026Z,59.41
2018-06-15T09:41:12.777Z,58.37
2018-06-15T09:43:17.648Z,57.21
2018-06-15T09:45:22.426Z,56.69
2018-06-15T09:47:27.189Z,56.17
2018-06-15T09:49:32.150Z,57.04
2018-06-15T09:51:37.206Z,56.87
2018-06-15T09:53:42.125Z,56.98
2018-06-15T09:55:47.119Z,55.03
2018-06-15T09:57:52.377Z,53.56
2018-06-15T09:59:57.294Z,53.75
2018-06-15T10:02:02.098Z,55.19
2018-06-15T10:04:07.045Z,55.11
2018-06-15T10:06:12.047Z,54.83
2018-06-15T10:08:16.969Z,54.51
2018-06-15T10:10:22.050Z,55.11
2018-06-15T10:12:27.964Z,54.88
2018-06-15T10:14:32.809Z,55.46
2018-06-15T10:16:37.643Z,54.38
2018-06-15T10:18:42.395Z,55.47
2018-06-15T10:20:47.367Z,55.75
2018-06-15T10:22:52.332Z,55.38
2018-06-15T10:24:57.459Z,56.64
2018-06-15T10:27:03.590Z,56.28
2018-06-15T10:29:08.854Z,56.06
2018-06-15T10:31:14.206Z,55.86
2018-06-15T10:33:19.273Z,54.69
2018-06-15T10:35:24.379Z,53.19
2018-06-15T10:37:29.573Z,54.23
2018-06-15T10:39:39.177Z,53.33
2018-06-15T10:41:43.862Z,52.80
2018-06-15T10:43:48.845Z,53.93
2018-06-15T10:45:53.587Z,53.15
2018-06-15T10:48:00.818Z,54.25
2018-06-15T10:50:06.707Z,55.25
2018-06-15T10:52:12.195Z,54.91
2018-06-15T10:54:17.121Z,54.83
2018-06-15T10:56:22.142Z,54.48
2018-06-15T10:58:27.354Z,54.01
2018-06-15T11:00:32.379Z,55.09
2018-06-15T11:02:37.478Z,55.42
2018-06-15T11:04:42.724Z,55.55
2018-06-15T11:06:48.437Z,53.12
2018-06-15T11:08:53.423Z,53.50
2018-06-15T11:10:58.478Z,54.44
2018-06-15T11:13:03.441Z,52.89
2018-06-15T11:15:08.524Z,52.64
2018-06-15T11:17:13.628Z,49.00
2018-06-15T11:19:18.691Z,47.13
2018-06-15T11:21:23.761Z,47.85
2018-06-15T11:23:28.730Z,48.29
2018-06-15T11:25:33.885Z,47.59
2018-06-15T11:27:38.976Z,48.36
2018-06-15T11:29:44.272Z,47.00
2018-06-15T11:31:51.569Z,48.55
2018-06-15T11:33:56.757Z,48.25
2018-06-15T11:36:02.508Z,49.61
2018-06-15T11:38:07.737Z,48.30
2018-06-15T11:40:12.916Z,49.00
2018-06-15T11:42:17.729Z,49.39
2018-06-15T11:44:22.611Z,49.02
2018-06-15T11:46:27.674Z,47.91
2018-06-15T11:48:32.797Z,48.19
2018-06-15T11:50:37.984Z,49.35
2018-06-15T11:52:43.321Z,48.28
2018-06-15T11:54:48.422Z,47.49
2018-06-15T11:56:53.569Z,47.50
2018-06-15T11:58:58.574Z,48.09
2018-06-15T12:01:03.545Z,48.78
2018-06-15T12:03:08.429Z,47.85
2018-06-15T12:05:13.797Z,48.33
2018-06-15T12:07:18.831Z,47.03
2018-06-15T12:09:23.939Z,45.83
2018-06-15T12:11:29.090Z,45.70
2018-06-15T12:13:34.437Z,45.26
2018-06-15T12:15:39.287Z,47.71
2018-06-15T12:17:44.098Z,48.79
2018-06-15T12:19:48.941Z,47.64
2018-06-15T12:21:54.030Z,47.03
2018-06-15T12:23:59.049Z,47.07
2018-06-15T12:26:03.986Z,47.26
2018-06-15T12:28:09.491Z,45.87
2018-06-15T12:30:14.943Z,47.38
2018-06-15T12:32:19.900Z,47.73
2018-06-15T12:34:24.642Z,44.88
2018-06-15T12:36:29.583Z,45.83
2018-06-15T12:38:34.489Z,46.28
2018-06-15T12:40:39.563Z,46.87
2018-06-15T12:42:44.600Z,46.21
2018-06-15T12:44:49.661Z,47.12
2018-06-15T12:47:01.149Z,48.13
2018-06-15T12:49:06.374Z,46.39
2018-06-15T12:51:12.549Z,46.90
2018-06-15T12:53:17.395Z,47.28
2018-06-15T12:55:22.788Z,48.51
2018-06-15T12:57:27.732Z,49.29
2018-06-15T12:59:32.684Z,47.33
2018-06-15T13:01:37.693Z,47.32
2018-06-15T13:03:45.599Z,47.59
2018-06-15T13:05:51.200Z,45.49
2018-06-15T13:07:56.274Z,45.96
2018-06-15T13:10:01.634Z,45.49
2018-06-15T13:12:06.681Z,47.46
2018-06-15T13:14:11.667Z,47.11
2018-06-15T13:16:16.601Z,45.94
2018-06-15T13:18:21.631Z,45.84
2018-06-15T13:20:26.698Z,46.89
2018-06-15T13:22:31.798Z,46.17
2018-06-15T13:24:43.317Z,44.10
2018-06-15T13:26:48.322Z,44.74
2018-06-15T13:28:53.335Z,43.80
2018-06-15T13:30:58.464Z,45.56
2018-06-15T13:33:05.692Z,45.84
2018-06-15T13:35:15.442Z,46.12
2018-06-15T13:37:22.098Z,46.23
2018-06-15T13:39:28.825Z,47.47
2018-06-15T13:41:37.502Z,45.54
2018-06-15T13:43:43.375Z,44.67
2018-06-15T13:45:49.571Z,44.92
2018-06-15T13:47:56.106Z,45.47
2018-06-15T13:50:01.978Z,45.44
2018-06-15T13:52:12.766Z,43.58
2018-06-15T13:54:17.807Z,44.50
2018-06-15T13:56:27.699Z,45.01
2018-06-15T13:58:36.945Z,43.97
2018-06-15T14:00:45.553Z,44.91
2018-06-15T14:02:52.953Z,45.32
2018-06-15T14:04:58.187Z,43.59
2018-06-15T14:07:03.652Z,44.69
2018-06-15T14:09:09.905Z,44.75
2018-06-15T14:11:14.897Z,45.22
2018-06-15T14:13:19.949Z,45.76
2018-06-15T14:15:24.962Z,46.00
2018-06-15T14:17:30.089Z,46.48
2018-06-15T14:19:34.981Z,45.63
2018-06-15T14:21:39.972Z,45.03
2018-06-15T14:23:44.806Z,44.26
2018-06-15T14:25:49.787Z,44.86
2018-06-15T14:27:54.800Z,44.85
2018-06-15T14:29:59.963Z,45.39
2018-06-15T14:32:04.953Z,43.48
2018-06-15T14:34:09.985Z,43.48
2018-06-15T14:36:14.909Z,39.81
2018-06-15T14:38:20.034Z,40.75
2018-06-15T14:40:25.096Z,38.74
2018-06-15T14:42:30.236Z,39.12
2018-06-15T14:44:35.389Z,41.01
2018-06-15T14:46:40.506Z,40.62
2018-06-15T14:48:45.386Z,41.55
2018-06-15T14:50:50.610Z,42.81
2018-06-15T14:52:56.536Z,43.83
2018-06-15T14:55:01.549Z,42.99
2018-06-15T14:57:06.646Z,41.57
2018-06-15T14:59:11.906Z,41.96
2018-06-15T15:01:16.916Z,43.83
2018-06-15T15:03:22.064Z,44.69
2018-06-15T15:05:27.066Z,44.41
2018-06-15T15:07:32.847Z,46.00
2018-06-15T15:09:41.765Z,44.67
2018-06-15T15:11:47.095Z,42.79
2018-06-15T15:13:54.942Z,43.49
2018-06-15T15:15:59.765Z,44.10
2018-06-15T15:18:05.224Z,41.91
2018-06-15T15:20:10.251Z,42.52
2018-06-15T15:22:18.271Z,42.34
2018-06-15T15:24:24.694Z,43.33
2018-06-15T15:26:33.899Z,43.77
2018-06-15T15:28:40.604Z,42.06
2018-06-15T15:30:47.945Z,42.86
2018-06-15T15:32:56.319Z,41.03
2018-06-15T15:35:03.134Z,42.49
2018-06-15T15:37:09.305Z,43.09
2018-06-15T15:39:16.915Z,41.15
2018-06-15T15:41:22.199Z,41.11
2018-06-15T15:43:37.393Z,41.58
2018-06-15T15:45:42.851Z,41.14
2018-06-15T15:47:47.729Z,41.63
2018-06-15T15:49:52.970Z,41.53
2018-06-15T15:51:58.734Z,41.64
2018-06-15T15:54:03.995Z,43.74
2018-06-15T15:56:09.172Z,41.89
2018-06-15T15:58:14.289Z,41.06
2018-06-15T16:00:19.222Z,40.26
2018-06-15T16:02:24.478Z,40.88
2018-06-15T16:04:29.534Z,40.46
2018-06-15T16:06:34.671Z,41.63
2018-06-15T16:08:39.946Z,40.22
2018-06-15T16:10:44.973Z,38.83
2018-06-15T16:12:50.046Z,39.49
2018-06-15T16:14:55.252Z,38.17
2018-06-15T16:17:00.439Z,40.08
2018-06-15T16:19:05.882Z,38.75
2018-06-15T16:21:11.864Z,38.83
2018-06-15T16:23:16.889Z,37.60
2018-06-15T16:25:21.826Z,38.66
2018-06-15T16:27:26.972Z,37.17
2018-06-15T16:29:31.918Z,36.14
2018-06-15T16:31:37.029Z,37.42
2018-06-15T16:33:42.075Z,35.07
2018-06-15T16:35:46.864Z,36.57
2018-06-15T16:37:51.769Z,38.19
2018-06-15T16:39:57.064Z,37.89
2018-06-15T16:42:01.736Z,37.26
2018-06-15T16:44:06.682Z,34.62
2018-06-15T16:46:11.931Z,35.57
2018-06-15T16:48:16.806Z,35.86
2018-06-15T16:50:21.766Z,36.89
2018-06-15T16:52:26.868Z,36.69
2018-06-15T16:54:32.549Z,37.86
2018-06-15T16:56:37.505Z,36.72
2018-06-15T16:58:42.587Z,36.74
2018-06-15T17:00:47.736Z,36.73
2018-06-15T17:02:52.710Z,35.69
2018-06-15T17:04:57.939Z,36.44
2018-06-15T17:07:02.909Z,36.13
2018-06-15T17:09:10.073Z,36.23
2018-06-15T17:11:15.369Z,34.74
2018-06-15T17:13:20.593Z,34.27
2018-06-15T17:15:25.233Z,34.38
2018-06-15T17:17:30.223Z,34.25
2018-06-15T17:19:35.395Z,33.77
2018-06-15T17:21:40.440Z,35.87
2018-06-15T17:23:45.322Z,33.89
2018-06-15T17:25:50.387Z,35.22
2018-06-15T17:27:55.270Z,36.32
2018-06-15T17:30:00.114Z,35.13
2018-06-15T17:32:05.072Z,35.34
2018-06-15T17:34:10.299Z,35.41
2018-06-15T17:36:15.523Z,35.38
2018-06-15T17:38:20.563Z,35.18
2018-06-15T17:40:25.732Z,34.72
2018-06-15T17:42:30.835Z,36.56
2018-06-15T17:44:35.873Z,35.18
2018-06-15T17:46:40.938Z,36.62
2018-06-15T17:48:46.078Z,35.92
2018-06-15T17:50:51.224Z,36.00
2018-06-15T17:52:56.332Z,36.42
2018-06-15T17:55:02.353Z,36.75
2018-06-15T17:57:07.718Z,36.75
2018-06-15T17:59:13.098Z,36.31
2018-06-15T18:01:18.636Z,37.55
2018-06-15T18:03:25.120Z,37.62
2018-06-15T18:05:31.103Z,37.07
2018-06-15T18:07:40.002Z,36.94
2018-06-15T18:09:45.736Z,37.18
2018-06-15T18:11:50.967Z,37.77
2018-06-15T18:13:56.310Z,37.41
2018-06-15T18:16:01.068Z,36.87
2018-06-15T18:18:05.955Z,37.60
2018-06-15T18:20:11.161Z,37.82
2018-06-15T18:22:16.130Z,37.97
2018-06-15T18:24:20.920Z,37.24
2018-06-15T18:26:25.872Z,37.41
2018-06-15T18:28:31.129Z,37.91
2018-06-15T18:30:36.251Z,38.15
2018-06-15T18:32:41.242Z,39.22
2018-06-15T18:34:46.359Z,38.68
2018-06-15T18:36:51.337Z,39.14
2018-06-15T18:38:56.434Z,39.94
2018-06-15T18:41:01.274Z,38.47
2018-06-15T18:43:06.187Z,39.28
2018-06-15T18:45:11.670Z,38.86
2018-06-15T18:47:16.763Z,39.64
2018-06-15T18:49:21.895Z,40.42
2018-06-15T18:51:26.828Z,39.73
2018-06-15T18:53:32.150Z,39.68
2018-06-15T18:55:37.120Z,39.29
2018-06-15T18:57:42.650Z,39.73
2018-06-15T18:59:47.957Z,39.74
2018-06-15T19:01:53.120Z,40.03
2018-06-15T19:03:58.360Z,41.08
2018-06-15T19:06:03.383Z,40.80
2018-06-15T19:08:08.983Z,40.21
2018-06-15T19:10:14.152Z,41.11
2018-06-15T19:12:19.147Z,39.91
2018-06-15T19:14:24.191Z,40.24
2018-06-15T19:16:29.255Z,40.53
2018-06-15T19:18:34.228Z,40.28
2018-06-15T19:20:39.455Z,41.65
2018-06-15T19:22:44.649Z,40.14
2018-06-15T19:24:49.630Z,40.52
2018-06-15T19:26:54.790Z,41.67
2018-06-15T19:28:59.949Z,41.26
2018-06-15T19:31:05.038Z,42.12
2018-06-15T19:33:10.090Z,41.34
2018-06-15T19:35:15.380Z,41.89
2018-06-15T19:37:20.703Z,42.92
2018-06-15T19:39:25.928Z,42.28
2018-06-15T19:41:31.164Z,43.00
2018-06-15T19:43:36.637Z,42.60
2018-06-15T19:45:41.831Z,43.09
2018-06-15T19:47:47.758Z,43.92
2018-06-15T19:49:53.283Z,43.12
2018-06-15T19:51:58.362Z,43.39
2018-06-15T19:54:03.602Z,43.55
2018-06-15T19:56:08.667Z,44.30
2018-06-15T19:58:13.842Z,45.60
2018-06-15T20:00:19.049Z,46.28
2018-06-15T20:02:24.291Z,46.19
2018-06-15T20:04:29.267Z,46.06
2018-06-15T20:06:34.516Z,46.72
2018-06-15T20:08:39.872Z,47.82
2018-06-15T20:10:45.315Z,44.91
2018-06-15T20:12:52.573Z,46.92
2018-06-15T20:14:59.939Z,47.06
2018-06-15T20:17:08.090Z,47.93
2018-06-15T20:19:16.383Z,48.80
2018-06-15T20:21:23.960Z,49.22
2018-06-15T20:23:33.151Z,48.45
2018-06-15T20:25:42.160Z,49.24
2018-06-15T20:27:50.679Z,49.88
2018-06-15T20:29:59.619Z,49.95
2018-06-15T20:32:07.517Z,52.18
2018-06-15T20:34:14.817Z,52.02
2018-06-15T20:36:20.657Z,50.30
2018-06-15T20:38:26.145Z,51.28
2018-06-15T20:40:34.030Z,52.05
2018-06-15T20:42:40.566Z,52.63
2018-06-15T20:44:47.765Z,53.00
2018-06-15T20:46:53.616Z,53.47
2018-06-15T20:49:02.037Z,53.47
2018-06-15T20:51:08.322Z,53.86
2018-06-15T20:53:14.390Z,54.28
2018-06-15T20:55:19.737Z,55.20
2018-06-15T20:57:24.845Z,55.03
2018-06-15T20:59:30.384Z,54.73
2018-06-15T21:01:37.580Z,55.08
2018-06-15T21:03:42.761Z,53.90
2018-06-15T21:05:47.928Z,54.44
2018-06-15T21:07:53.509Z,57.68
2018-06-15T21:09:58.567Z,57.50
2018-06-15T21:12:03.796Z,56.98
2018-06-15T21:14:09.603Z,56.95
2018-06-15T21:16:15.276Z,58.43
2018-06-15T21:18:20.430Z,58.11
2018-06-15T21:20:25.231Z,57.50
2018-06-15T21:22:31.017Z,58.21
2018-06-15T21:26:48.622Z,58.72
2018-06-15T21:28:55.547Z,59.07
2018-06-15T21:31:01.445Z,59.22
2018-06-15T21:33:07.110Z,58.70
2018-06-15T21:35:12.555Z,59.39
2018-06-15T21:37:18.283Z,59.89
2018-06-15T21:39:24.903Z,59.18
2018-06-15T21:41:30.864Z,59.34
2018-06-15T21:43:37.320Z,59.73
2018-06-15T21:45:43.200Z,59.12
2018-06-15T21:47:48.622Z,59.55
2018-06-15T21:49:53.796Z,59.25
2018-06-15T21:51:59.260Z,59.98
2018-06-15T21:54:04.409Z,58.61
2018-06-15T21:56:09.190Z,58.99
2018-06-15T21:58:14.565Z,59.24
2018-06-15T22:00:19.681Z,59.93
2018-06-15T22:02:24.799Z,61.13
2018-06-15T22:04:29.855Z,60.69
2018-06-15T22:06:34.807Z,61.04
2018-06-15T22:08:40.111Z,60.23
2018-06-15T22:10:45.169Z,60.67
2018-06-15T22:12:49.895Z,60.53
2018-06-15T22:14:54.780Z,60.01
2018-06-15T22:16:59.934Z,60.12
2018-06-15T22:19:05.074Z,60.50
2018-06-15T22:21:10.262Z,60.08
2018-06-15T22:23:15.430Z,60.28
2018-06-15T22:25:20.477Z,60.71
2018-06-15T22:27:25.548Z,61.54
2018-06-15T22:29:30.643Z,61.08
2018-06-15T22:31:35.820Z,61.22
2018-06-15T22:33:40.968Z,61.22
2018-06-15T22:35:46.393Z,61.36
2018-06-15T22:37:51.662Z,61.73
2018-06-15T22:39:56.889Z,61.27
2018-06-15T22:42:02.153Z,62.26
2018-06-15T22:44:07.122Z,61.74
2018-06-15T22:46:12.377Z,62.09
2018-06-15T22:48:17.432Z,62.09
2018-06-15T22:50:22.506Z,62.46
2018-06-15T22:52:27.701Z,62.73
2018-06-15T22:54:32.825Z,62.92
2018-06-15T22:56:37.910Z,63.78
2018-06-15T22:58:43.387Z,63.53
2018-06-15T23:00:48.439Z,64.41
2018-06-15T23:02:57.424Z,64.66
2018-06-15T23:05:02.155Z,65.03
2018-06-15T23:07:07.036Z,65.45
2018-06-15T23:09:12.890Z,65.10
2018-06-15T23:11:20.335Z,65.66
2018-06-15T23:13:25.178Z,66.08
2018-06-15T23:15:30.060Z,65.48
2018-06-15T23:17:35.290Z,66.25
2018-06-15T23:19:40.071Z,66.92
2018-06-15T23:21:44.947Z,66.83
2018-06-15T23:23:49.935Z,66.70
2018-06-15T23:25:54.960Z,67.29
2018-06-15T23:28:00.021Z,67.46
2018-06-15T23:30:05.312Z,67.74
2018-06-15T23:32:10.303Z,67.33
2018-06-15T23:34:15.270Z,67.95
2018-06-15T23:36:20.369Z,68.03
2018-06-15T23:38:25.411Z,68.04
2018-06-15T23:40:30.163Z,68.85
2018-06-15T23:42:35.131Z,68.34
2018-06-15T23:44:39.972Z,68.27
2018-06-15T23:46:44.864Z,69.00
2018-06-15T23:48:49.804Z,68.15
2018-06-15T23:50:54.718Z,68.47
2018-06-15T23:52:59.655Z,68.28
2018-06-15T23:55:04.778Z,69.28
2018-06-15T23:57:09.613Z,68.78
2018-06-15T23:59:14.530Z,69.19
